createdAt,value
2019-05-25T00:01:33.590Z,8.67
2019-05-25T00:04:04.961Z,9.73
2019-05-25T00:06:35.251Z,8.80
2019-05-25T00:09:08.180Z,8.83
2019-05-25T00:11:38.498Z,9.70
2019-05-25T00:14:08.820Z,9.47
2019-05-25T00:16:39.128Z,8.80
2019-05-25T00:19:09.445Z,8.33
2019-05-25T00:21:40.301Z,8.10
2019-05-25T00:24:12.493Z,8.13
2019-05-25T00:26:43.119Z,8.77
2019-05-25T00:29:13.706Z,8.70
2019-05-25T00:31:44.194Z,9.23
2019-05-25T00:34:14.991Z,8.07
2019-05-25T00:36:46.103Z,9.33
2019-05-25T00:39:16.741Z,9.13
2019-05-25T00:41:47.391Z,9.00
2019-05-25T00:44:18.007Z,8.50
2019-05-25T00:46:48.808Z,8.73
2019-05-25T00:49:19.377Z,8.90
2019-05-25T00:51:49.960Z,8.37
2019-05-25T00:54:27.866Z,8.37
2019-05-25T00:56:52.959Z,9.20
2019-05-25T00:59:23.426Z,8.70
2019-05-25T01:01:54.117Z,8.87
2019-05-25T01:04:27.102Z,8.83
2019-05-25T01:06:57.851Z,8.87
2019-05-25T01:09:28.148Z,8.53
2019-05-25T01:11:58.474Z,8.37
2019-05-25T01:14:28.785Z,8.50
2019-05-25T01:17:01.970Z,8.37
2019-05-25T01:19:32.347Z,8.77
2019-05-25T01:22:02.661Z,8.97
2019-05-25T01:24:44.019Z,8.80
2019-05-25T01:27:04.950Z,8.40
2019-05-25T01:29:35.274Z,8.10
2019-05-25T01:32:05.544Z,7.70
2019-05-25T01:34:35.841Z,9.47
2019-05-25T01:37:06.123Z,8.13
2019-05-25T01:39:36.450Z,7.97
2019-05-25T01:42:06.705Z,8.70
2019-05-25T01:44:37.027Z,9.20
2019-05-25T01:47:07.841Z,8.70
2019-05-25T01:49:38.190Z,8.40
2019-05-25T01:52:08.474Z,8.03
2019-05-25T01:54:38.756Z,8.83
2019-05-25T01:57:09.052Z,7.90
2019-05-25T01:59:39.377Z,8.10
2019-05-25T02:02:09.674Z,8.40
2019-05-25T02:04:39.960Z,7.90
2019-05-25T02:07:10.272Z,8.53
2019-05-25T02:09:40.617Z,8.30
2019-05-25T02:12:10.923Z,7.90
2019-05-25T02:14:41.218Z,8.30
2019-05-25T02:17:11.533Z,7.80
2019-05-25T02:19:41.798Z,8.03
2019-05-25T02:22:12.129Z,7.77
2019-05-25T02:24:42.386Z,7.57
2019-05-25T02:27:12.668Z,7.77
2019-05-25T02:29:43.132Z,7.37
2019-05-25T02:32:13.409Z,7.27
2019-05-25T02:34:43.702Z,7.27
2019-05-25T02:37:14.006Z,7.50
2019-05-25T02:39:44.269Z,7.70
2019-05-25T02:42:14.574Z,7.57
2019-05-25T02:44:45.089Z,7.13
2019-05-25T02:47:16.347Z,7.50
2019-05-25T02:49:46.598Z,7.00
2019-05-25T02:52:16.884Z,6.90
2019-05-25T02:54:47.154Z,6.83
2019-05-25T02:57:17.742Z,6.60
2019-05-25T02:59:48.020Z,6.97
2019-05-25T03:02:18.335Z,7.07
2019-05-25T03:04:48.602Z,7.53
2019-05-25T03:07:20.030Z,7.43
2019-05-25T03:09:51.813Z,7.60
2019-05-25T03:12:22.351Z,6.90
2019-05-25T03:14:52.605Z,7.10
2019-05-25T03:17:22.870Z,6.80
2019-05-25T03:19:53.188Z,6.93
2019-05-25T03:22:23.465Z,7.20
2019-05-25T03:24:53.775Z,7.03
2019-05-25T03:27:24.048Z,6.70
2019-05-25T03:29:54.346Z,7.07
2019-05-25T03:32:24.624Z,7.07
2019-05-25T03:34:54.951Z,6.87
2019-05-25T03:37:25.180Z,6.70
2019-05-25T03:39:55.488Z,6.53
2019-05-25T03:42:28.552Z,7.33
2019-05-25T03:44:58.834Z,7.23
2019-05-25T03:47:29.089Z,6.63
2019-05-25T03:49:59.380Z,7.23
2019-05-25T03:52:29.646Z,6.63
2019-05-25T03:54:59.925Z,7.13
2019-05-25T03:57:30.191Z,6.50
2019-05-25T04:00:00.505Z,6.80
2019-05-25T04:02:30.773Z,6.50
2019-05-25T04:05:01.061Z,6.43
2019-05-25T04:07:31.314Z,6.17
2019-05-25T04:10:02.194Z,6.17
2019-05-25T04:12:32.701Z,6.30
2019-05-25T04:15:03.537Z,6.73
2019-05-25T04:17:33.808Z,6.33
2019-05-25T04:20:05.466Z,6.23
2019-05-25T04:22:35.742Z,6.37
2019-05-25T04:25:06.138Z,6.03
2019-05-25T04:27:36.397Z,6.03
2019-05-25T04:30:07.739Z,5.97
2019-05-25T04:32:38.100Z,5.73
2019-05-25T04:35:09.233Z,5.73
2019-05-25T04:37:39.509Z,6.00
2019-05-25T04:40:10.106Z,6.10
2019-05-25T04:42:40.384Z,5.73
2019-05-25T04:45:12.110Z,5.97
2019-05-25T04:47:42.361Z,5.97
2019-05-25T04:50:12.857Z,6.00
2019-05-25T04:52:43.140Z,5.93
2019-05-25T04:55:14.025Z,5.77
2019-05-25T04:57:44.278Z,5.93
2019-05-25T05:00:15.166Z,5.60
2019-05-25T05:02:45.456Z,5.53
2019-05-25T05:05:15.765Z,6.13
2019-05-25T05:07:46.034Z,5.80
2019-05-25T05:10:16.469Z,6.40
2019-05-25T05:12:46.762Z,5.93
2019-05-25T05:15:17.246Z,5.63
2019-05-25T05:17:47.513Z,5.40
2019-05-25T05:20:17.945Z,5.37
2019-05-25T05:22:48.192Z,5.37
2019-05-25T05:25:19.633Z,5.50
2019-05-25T05:27:49.933Z,5.40
2019-05-25T05:30:24.403Z,5.23
2019-05-25T05:32:54.707Z,5.40
2019-05-25T05:35:24.990Z,5.27
2019-05-25T05:37:55.557Z,5.20
2019-05-25T05:40:25.891Z,4.73
2019-05-25T05:42:59.630Z,5.47
2019-05-25T05:45:32.956Z,4.73
2019-05-25T05:48:04.507Z,4.77
2019-05-25T05:50:38.113Z,4.73
2019-05-25T05:53:08.916Z,4.80
2019-05-25T05:55:39.776Z,4.37
2019-05-25T05:58:10.315Z,4.67
2019-05-25T06:00:42.297Z,4.40
2019-05-25T06:03:12.649Z,4.27
2019-05-25T06:05:42.899Z,4.47
2019-05-25T06:08:13.191Z,4.10
2019-05-25T06:10:43.506Z,4.20
2019-05-25T06:13:13.802Z,4.00
2019-05-25T06:15:44.161Z,3.87
2019-05-25T06:18:14.449Z,3.80
2019-05-25T06:20:56.595Z,3.60
2019-05-25T06:23:26.907Z,3.53
2019-05-25T06:25:57.266Z,4.20
2019-05-25T06:28:27.557Z,3.60
2019-05-25T06:30:57.877Z,3.80
2019-05-25T06:33:28.620Z,3.60
2019-05-25T06:35:59.014Z,3.30
2019-05-25T06:38:29.554Z,3.10
2019-05-25T06:41:00.013Z,3.67
2019-05-25T06:43:30.819Z,3.17
2019-05-25T06:46:01.178Z,3.60
2019-05-25T06:48:31.528Z,3.87
2019-05-25T06:51:02.041Z,3.57
2019-05-25T06:53:32.322Z,3.70
2019-05-25T06:56:02.605Z,3.57
2019-05-25T06:58:32.997Z,4.03
2019-05-25T07:01:04.890Z,4.07
2019-05-25T07:03:35.450Z,4.40
2019-05-25T07:06:05.741Z,4.23
2019-05-25T07:08:37.241Z,4.50
2019-05-25T07:11:07.645Z,5.13
2019-05-25T07:13:37.935Z,5.60
2019-05-25T07:16:08.264Z,5.40
2019-05-25T07:18:38.693Z,4.50
2019-05-25T07:21:10.307Z,4.90
2019-05-25T07:23:42.337Z,4.80
2019-05-25T07:26:12.969Z,4.30
2019-05-25T07:28:43.301Z,4.70
2019-05-25T07:31:13.653Z,4.30
2019-05-25T07:33:45.302Z,4.27
2019-05-25T07:36:15.795Z,4.17
2019-05-25T07:38:46.182Z,4.13
2019-05-25T07:41:19.084Z,4.33
2019-05-25T07:43:49.444Z,4.73
2019-05-25T07:46:20.053Z,4.20
2019-05-25T07:48:50.578Z,4.47
2019-05-25T07:51:22.720Z,4.73
2019-05-25T07:53:53.021Z,4.90
2019-05-25T07:56:24.260Z,4.83
2019-05-25T07:58:54.605Z,4.90
2019-05-25T08:01:24.902Z,4.17
2019-05-25T08:03:56.157Z,3.73
2019-05-25T08:06:26.438Z,3.60
2019-05-25T08:08:56.724Z,3.40
2019-05-25T08:11:27.023Z,2.93
2019-05-25T08:13:57.332Z,3.00
2019-05-25T08:16:27.585Z,3.23
2019-05-25T08:18:57.893Z,3.00
2019-05-25T08:21:28.175Z,2.80
2019-05-25T08:23:58.511Z,2.72
2019-05-25T08:26:28.829Z,3.80
2019-05-25T08:28:59.117Z,3.47
2019-05-25T08:31:31.012Z,3.17
2019-05-25T08:34:01.421Z,2.12
2019-05-25T08:36:31.690Z,2.37
2019-05-25T08:39:02.006Z,2.70
2019-05-25T08:41:33.485Z,2.23
2019-05-25T08:44:04.640Z,3.00
2019-05-25T08:46:35.029Z,3.17
2019-05-25T08:49:05.404Z,2.70
2019-05-25T08:51:35.690Z,2.93
2019-05-25T08:54:06.096Z,2.60
2019-05-25T08:56:38.957Z,2.73
2019-05-25T08:59:09.272Z,2.30
2019-05-25T09:01:39.589Z,1.70
2019-05-25T09:04:09.896Z,2.10
2019-05-25T09:06:40.204Z,1.60
2019-05-25T09:09:10.497Z,1.57
2019-05-25T09:11:40.836Z,1.85
2019-05-25T09:14:11.081Z,1.80
2019-05-25T09:16:41.380Z,2.10
2019-05-25T09:19:11.719Z,1.90
2019-05-25T09:21:42.021Z,2.00
2019-05-25T09:24:12.353Z,2.05
2019-05-25T09:26:42.649Z,1.85
2019-05-25T09:29:12.908Z,1.98
2019-05-25T09:31:43.210Z,1.90
2019-05-25T09:34:13.456Z,1.75
2019-05-25T09:36:43.777Z,1.95
2019-05-25T09:39:14.038Z,2.02
2019-05-25T09:41:44.317Z,2.10
2019-05-25T09:44:14.588Z,2.00
2019-05-25T09:46:44.864Z,2.08
2019-05-25T09:49:15.285Z,2.08
2019-05-25T09:51:48.511Z,1.72
2019-05-25T09:54:17.521Z,1.90
2019-05-25T09:56:47.833Z,1.50
2019-05-25T09:59:20.375Z,2.08
2019-05-25T10:01:50.014Z,2.40
2019-05-25T10:04:20.291Z,1.98
2019-05-25T10:06:50.589Z,1.32
2019-05-25T10:09:20.867Z,1.30
2019-05-25T10:11:51.179Z,1.22
2019-05-25T10:14:21.449Z,1.47
2019-05-25T10:16:51.734Z,1.50
2019-05-25T10:19:22.062Z,1.40
2019-05-25T10:21:52.354Z,1.25
2019-05-25T10:24:22.762Z,1.72
2019-05-25T10:26:53.046Z,1.62
2019-05-25T10:29:36.655Z,1.70
2019-05-25T10:31:55.273Z,1.57
2019-05-25T10:34:25.574Z,1.57
2019-05-25T10:36:55.905Z,1.60
2019-05-25T10:39:26.670Z,1.70
2019-05-25T10:41:57.029Z,1.70
2019-05-25T10:44:27.381Z,1.50
2019-05-25T10:46:58.640Z,1.50
2019-05-25T10:49:28.957Z,1.60
2019-05-25T10:51:59.221Z,1.80
2019-05-25T10:54:30.022Z,1.60
2019-05-25T10:57:00.301Z,1.60
2019-05-25T10:59:32.065Z,1.90
2019-05-25T11:02:02.361Z,1.50
2019-05-25T11:04:33.303Z,1.80
2019-05-25T11:07:03.703Z,1.52
2019-05-25T11:09:33.986Z,1.50
2019-05-25T11:12:04.581Z,1.75
2019-05-25T11:14:35.688Z,1.62
2019-05-25T11:17:06.001Z,1.77
2019-05-25T11:19:36.379Z,1.52
2019-05-25T11:22:07.001Z,1.70
2019-05-25T11:24:37.478Z,1.50
2019-05-25T11:27:07.778Z,1.70
2019-05-25T11:29:38.109Z,1.52
2019-05-25T11:32:08.475Z,1.80
2019-05-25T11:34:38.884Z,2.00
2019-05-25T11:37:09.176Z,2.27
2019-05-25T11:39:39.454Z,2.00
2019-05-25T11:42:09.755Z,1.70
2019-05-25T11:44:40.976Z,2.00
2019-05-25T11:47:12.220Z,1.77
2019-05-25T11:49:42.532Z,2.02
2019-05-25T11:52:12.800Z,2.00
2019-05-25T11:54:43.086Z,1.60
2019-05-25T11:57:13.370Z,1.60
2019-05-25T11:59:43.695Z,1.55
2019-05-25T12:02:13.984Z,2.00
2019-05-25T12:04:44.290Z,2.00
2019-05-25T12:07:14.594Z,1.75
2019-05-25T12:09:44.950Z,1.70
2019-05-25T12:12:15.265Z,1.87
2019-05-25T12:14:45.559Z,1.77
2019-05-25T12:17:15.810Z,1.87
2019-05-25T12:19:46.087Z,1.70
2019-05-25T12:22:16.377Z,1.80
2019-05-25T12:24:46.685Z,1.80
2019-05-25T12:27:17.000Z,1.80
2019-05-25T12:29:47.302Z,1.80
2019-05-25T12:32:17.589Z,1.60
2019-05-25T12:34:47.874Z,1.80
2019-05-25T12:37:19.495Z,1.70
2019-05-25T12:39:49.781Z,1.60
2019-05-25T12:42:20.063Z,1.70
2019-05-25T12:44:50.457Z,1.42
2019-05-25T12:47:20.729Z,1.50
2019-05-25T12:49:51.342Z,3.47
2019-05-25T12:52:21.806Z,1.95
2019-05-25T12:54:52.699Z,1.45
2019-05-25T12:57:24.211Z,1.50
2019-05-25T12:59:54.783Z,1.80
2019-05-25T13:02:25.086Z,1.70
2019-05-25T13:04:55.373Z,2.35
2019-05-25T13:07:25.662Z,1.77
2019-05-25T13:09:55.973Z,1.87
2019-05-25T13:12:26.277Z,1.80
2019-05-25T13:15:02.056Z,2.22
2019-05-25T13:17:35.184Z,2.37
2019-05-25T13:20:06.091Z,1.80
2019-05-25T13:22:36.382Z,1.80
2019-05-25T13:25:06.935Z,1.65
2019-05-25T13:27:37.246Z,1.70
2019-05-25T13:30:07.818Z,1.80
2019-05-25T13:32:38.124Z,2.60
2019-05-25T13:35:08.716Z,3.05
2019-05-25T13:37:39.169Z,1.92
2019-05-25T13:40:10.375Z,2.10
2019-05-25T13:42:40.729Z,2.60
2019-05-25T13:45:11.179Z,2.20
2019-05-25T13:47:41.535Z,2.25
2019-05-25T13:50:12.213Z,2.45
2019-05-25T13:52:42.509Z,2.30
2019-05-25T13:55:13.740Z,2.10
2019-05-25T13:57:44.058Z,2.62
2019-05-25T14:00:14.743Z,2.58
2019-05-25T14:02:45.065Z,2.55
2019-05-25T14:05:15.426Z,2.55
2019-05-25T14:07:45.741Z,2.80
2019-05-25T14:10:16.152Z,2.70
2019-05-25T14:12:46.436Z,2.60
2019-05-25T14:15:16.843Z,2.37
2019-05-25T14:17:47.114Z,2.55
2019-05-25T14:20:17.406Z,3.02
2019-05-25T14:22:47.679Z,2.60
2019-05-25T14:25:18.049Z,2.40
2019-05-25T14:27:48.347Z,2.30
2019-05-25T14:30:18.777Z,2.12
2019-05-25T14:32:49.034Z,2.50
2019-05-25T14:35:19.360Z,1.90
2019-05-25T14:37:49.646Z,2.08
2019-05-25T14:40:20.031Z,2.30
2019-05-25T14:42:50.357Z,2.37
2019-05-25T14:45:21.233Z,2.77
2019-05-25T14:47:51.492Z,3.00
2019-05-25T14:50:21.786Z,2.60
2019-05-25T14:52:52.078Z,2.90
2019-05-25T14:55:22.364Z,2.62
2019-05-25T14:57:52.628Z,2.70
2019-05-25T15:00:22.936Z,2.33
2019-05-25T15:02:54.125Z,2.80
2019-05-25T15:05:24.436Z,2.40
2019-05-25T15:07:55.683Z,2.70
2019-05-25T15:10:26.254Z,3.10
2019-05-25T15:12:56.520Z,2.92
2019-05-25T15:15:26.897Z,3.15
2019-05-25T15:17:57.202Z,3.10
2019-05-25T15:20:27.493Z,4.50
2019-05-25T15:22:57.753Z,3.55
2019-05-25T15:25:28.056Z,2.52
2019-05-25T15:27:58.327Z,2.50
2019-05-25T15:30:28.615Z,2.40
2019-05-25T15:32:58.884Z,2.40
2019-05-25T15:35:29.210Z,2.50
2019-05-25T15:37:59.478Z,3.00
2019-05-25T15:40:32.837Z,2.85
2019-05-25T15:43:10.097Z,4.85
2019-05-25T15:45:43.910Z,3.83
2019-05-25T15:48:14.970Z,8.95
2019-05-25T15:50:45.886Z,8.93
2019-05-25T15:53:17.056Z,7.12
2019-05-25T15:55:47.558Z,5.30
2019-05-25T15:58:19.280Z,3.90
2019-05-25T16:00:50.638Z,4.15
2019-05-25T16:03:23.296Z,4.15
2019-05-25T16:05:57.841Z,3.80
2019-05-25T16:08:28.444Z,4.20
2019-05-25T16:11:01.797Z,4.22
2019-05-25T16:13:32.559Z,5.28
2019-05-25T16:16:04.990Z,6.20
2019-05-25T16:18:35.329Z,4.40
2019-05-25T16:21:05.877Z,4.15
2019-05-25T16:23:36.306Z,5.30
2019-05-25T16:26:06.632Z,5.50
2019-05-25T16:28:36.987Z,5.45
2019-05-25T16:31:07.280Z,5.15
2019-05-25T16:33:38.532Z,5.10
2019-05-25T16:36:08.884Z,4.78
2019-05-25T16:38:39.429Z,4.97
2019-05-25T16:41:11.328Z,6.12
2019-05-25T16:43:42.105Z,6.30
2019-05-25T16:46:12.557Z,4.65
2019-05-25T16:48:42.951Z,5.05
2019-05-25T16:51:13.635Z,4.70
2019-05-25T16:53:44.196Z,4.72
2019-05-25T16:56:14.496Z,4.40
2019-05-25T16:58:44.782Z,4.03
2019-05-25T17:01:17.867Z,4.37
2019-05-25T17:03:47.024Z,4.53
2019-05-25T17:06:17.248Z,4.47
2019-05-25T17:08:47.524Z,4.12
2019-05-25T17:11:17.773Z,4.30
2019-05-25T17:13:48.062Z,4.55
2019-05-25T17:16:26.076Z,4.42
2019-05-25T17:18:58.592Z,4.72
2019-05-25T17:21:29.976Z,4.87
2019-05-25T17:24:05.109Z,6.10
2019-05-25T17:26:36.855Z,4.97
2019-05-25T17:29:07.168Z,5.50
2019-05-25T17:31:39.190Z,4.75
2019-05-25T17:34:11.122Z,4.62
2019-05-25T17:36:41.428Z,5.12
2019-05-25T17:39:12.768Z,5.55
2019-05-25T17:41:46.391Z,6.67
2019-05-25T17:44:16.700Z,6.95
2019-05-25T17:46:46.960Z,6.12
2019-05-25T17:49:17.626Z,6.08
2019-05-25T17:51:48.080Z,6.10
2019-05-25T17:54:18.397Z,6.35
2019-05-25T17:56:48.724Z,6.05
2019-05-25T17:59:20.146Z,7.22
2019-05-25T18:01:50.406Z,5.90
2019-05-25T18:04:20.697Z,5.40
2019-05-25T18:06:50.949Z,5.22
2019-05-25T18:09:21.249Z,5.35
2019-05-25T18:11:51.537Z,5.30
2019-05-25T18:14:21.845Z,5.15
2019-05-25T18:16:53.634Z,5.20
2019-05-25T18:19:23.936Z,5.60
2019-05-25T18:21:54.221Z,5.62
2019-05-25T18:24:24.525Z,5.65
2019-05-25T18:26:54.816Z,5.55
2019-05-25T18:29:25.130Z,5.60
2019-05-25T18:31:55.404Z,6.30
2019-05-25T18:34:25.969Z,5.87
2019-05-25T18:36:56.302Z,5.83
2019-05-25T18:39:27.411Z,6.03
2019-05-25T18:42:07.095Z,6.08
2019-05-25T18:44:45.723Z,5.70
2019-05-25T18:47:16.529Z,5.15
2019-05-25T18:49:46.899Z,6.08
2019-05-25T18:52:17.322Z,5.78
2019-05-25T18:54:47.808Z,5.60
2019-05-25T18:57:20.055Z,6.33
2019-05-25T18:59:52.703Z,6.08
2019-05-25T19:02:24.780Z,6.17
2019-05-25T19:04:59.769Z,5.50
2019-05-25T19:07:28.358Z,6.03
2019-05-25T19:09:58.673Z,7.33
2019-05-25T19:12:31.069Z,7.12
2019-05-25T19:15:05.021Z,7.03
2019-05-25T19:17:44.573Z,7.00
2019-05-25T19:20:20.939Z,6.70
2019-05-25T19:22:49.274Z,6.95
2019-05-25T19:25:22.567Z,7.45
2019-05-25T19:28:00.081Z,7.15
2019-05-25T19:30:32.169Z,7.03
2019-05-25T19:33:15.104Z,7.12
2019-05-25T19:35:49.081Z,7.30
2019-05-25T19:38:21.739Z,7.28
2019-05-25T19:40:54.440Z,7.12
2019-05-25T19:43:26.252Z,6.90
2019-05-25T19:45:56.741Z,7.35
2019-05-25T19:48:27.017Z,6.70
2019-05-25T19:50:57.730Z,7.22
2019-05-25T19:53:28.393Z,7.17
2019-05-25T19:55:59.332Z,6.50
2019-05-25T19:58:30.741Z,6.75
2019-05-25T20:01:02.639Z,7.42
2019-05-25T20:03:36.129Z,6.53
2019-05-25T20:06:10.914Z,7.12
2019-05-25T20:08:41.388Z,6.60
2019-05-25T20:11:11.998Z,7.00
2019-05-25T20:13:43.349Z,6.97
2019-05-25T20:16:28.224Z,7.43
2019-05-25T20:19:00.003Z,7.20
2019-05-25T20:21:30.972Z,7.05
2019-05-25T20:24:03.141Z,6.80
2019-05-25T20:26:33.615Z,6.70
2019-05-25T20:29:03.961Z,6.12
2019-05-25T20:31:39.942Z,6.90
2019-05-25T20:34:11.861Z,6.53
2019-05-25T20:36:42.599Z,5.97
2019-05-25T20:39:13.141Z,6.13
2019-05-25T20:41:43.701Z,6.47
2019-05-25T20:44:18.012Z,5.60
2019-05-25T20:46:49.276Z,5.70
2019-05-25T20:49:24.040Z,6.00
2019-05-25T20:51:55.963Z,5.83
2019-05-25T20:54:26.676Z,5.43
2019-05-25T20:56:58.973Z,5.90
2019-05-25T20:59:29.489Z,5.85
2019-05-25T21:02:02.835Z,6.03
2019-05-25T21:04:35.432Z,5.90
2019-05-25T21:07:05.750Z,5.70
2019-05-25T21:09:37.704Z,5.37
2019-05-25T21:12:10.224Z,5.25
2019-05-25T21:14:43.265Z,5.67
2019-05-25T21:17:13.627Z,5.50
2019-05-25T21:19:54.112Z,5.60
2019-05-25T21:22:26.032Z,5.42
2019-05-25T21:24:56.401Z,5.58
2019-05-25T21:27:26.882Z,6.10
2019-05-25T21:29:57.331Z,5.75
2019-05-25T21:32:27.817Z,5.33
2019-05-25T21:34:59.645Z,5.58
2019-05-25T21:37:33.229Z,4.93
2019-05-25T21:40:05.752Z,5.22
2019-05-25T21:42:37.332Z,5.10
2019-05-25T21:45:07.965Z,6.15
2019-05-25T21:47:38.589Z,5.60
2019-05-25T21:50:11.591Z,5.83
2019-05-25T21:52:46.013Z,5.60
2019-05-25T21:55:21.537Z,6.10
2019-05-25T21:57:56.578Z,5.17
2019-05-25T22:00:32.461Z,5.83
2019-05-25T22:03:15.885Z,5.20
2019-05-25T22:05:55.636Z,5.10
2019-05-25T22:08:34.795Z,5.27
2019-05-25T22:11:09.988Z,5.60
2019-05-25T22:13:40.274Z,5.30
2019-05-25T22:16:12.904Z,5.92
2019-05-25T22:18:43.458Z,7.12
2019-05-25T22:21:18.052Z,9.35
2019-05-25T22:23:49.572Z,8.83
2019-05-25T22:26:37.617Z,7.55
2019-05-25T22:29:08.334Z,6.20
2019-05-25T22:31:43.205Z,7.20
2019-05-25T22:34:13.509Z,7.40
2019-05-25T22:36:43.750Z,7.07
2019-05-25T22:39:14.077Z,6.47
2019-05-25T22:41:44.330Z,7.00
2019-05-25T22:44:14.651Z,7.30
2019-05-25T22:46:44.938Z,7.83
2019-05-25T22:49:15.264Z,8.70
2019-05-25T22:51:45.534Z,9.10
2019-05-25T22:54:15.837Z,7.77
2019-05-25T22:56:46.132Z,6.90
2019-05-25T22:59:16.458Z,6.75
2019-05-25T23:01:46.731Z,7.20
2019-05-25T23:04:17.095Z,6.63
2019-05-25T23:06:57.045Z,7.28
2019-05-25T23:09:19.277Z,7.20
2019-05-25T23:11:49.576Z,7.27
2019-05-25T23:14:20.809Z,7.73
2019-05-25T23:16:51.062Z,7.50
2019-05-25T23:19:21.338Z,7.43
2019-05-25T23:21:51.588Z,7.17
2019-05-25T23:24:21.873Z,7.13
2019-05-25T23:26:52.116Z,6.97
2019-05-25T23:29:22.402Z,6.90
2019-05-25T23:31:52.711Z,7.20
2019-05-25T23:34:23.012Z,9.00
2019-05-25T23:36:53.287Z,8.40
2019-05-25T23:39:23.600Z,8.57
2019-05-25T23:41:53.880Z,8.40
2019-05-25T23:44:24.181Z,8.17
2019-05-25T23:46:54.468Z,8.60
2019-05-25T23:49:24.831Z,8.87
2019-05-25T23:51:55.088Z,8.40
2019-05-25T23:54:25.414Z,9.10
2019-05-25T23:56:55.702Z,8.33
2019-05-25T23:59:25.993Z,8.70
